Time;durP1;ratioP1;P1;durP2;ratioP2;P2;SDS_P1;SDS_P2;PMS_P1;PMS_P2;Temp;Humidity;BMP_temperature;BMP_pressure;BME280_temperature;BME280_humidity;BME280_pressure;Samples;Min_cycle;Max_cycle;Signal;HPM_P1;HPM_P2
2023/01/08 09:45:36;;;;;;;60.28;33.42;;;10.20;53.00;;;;;;4992998;28;20602;-54
2023/01/08 09:48:06;;;;;;;68.45;36.85;;;10.00;52.70;;;;;;5007818;28;20037;-59
2023/01/08 09:50:33;;;;;;;52.42;31.10;;;10.00;55.50;;;;;;5010207;28;20041;-59
2023/01/08 09:52:59;;;;;;;51.33;30.08;;;10.10;59.60;;;;;;5008077;28;20018;-59
2023/01/08 09:55:28;;;;;;;50.25;29.50;;;10.30;67.70;;;;;;5005150;28;20037;-59
2023/01/08 09:57:54;;;;;;;49.80;31.30;;;10.40;83.60;;;;;;5009685;28;20036;-58
2023/01/08 10:00:29;;;;;;;47.70;29.33;;;10.40;99.90;;;;;;5013687;28;20021;-59
2023/01/08 10:02:56;;;;;;;48.53;29.92;;;10.40;81.40;;;;;;5009861;28;20045;-59
2023/01/08 10:05:22;;;;;;;43.00;26.30;;;10.50;1.00;;;;;;5013260;28;20421;-59
2023/01/08 10:07:48;;;;;;;46.35;29.55;;;10.50;1.00;;;;;;5013617;28;20025;-59
2023/01/08 10:10:25;;;;;;;53.10;31.45;;;10.50;1.00;;;;;;5005926;28;20061;-59
2023/01/08 10:12:53;;;;;;;45.58;30.15;;;10.50;1.00;;;;;;5007189;28;20080;-59
2023/01/08 10:15:21;;;;;;;48.67;29.70;;;10.40;1.00;;;;;;5001840;28;20068;-59
2023/01/08 10:18:06;;;;;;;45.10;28.85;;;10.50;1.00;;;;;;4999896;28;20030;-59
2023/01/08 10:20:32;;;;;;;47.45;28.45;;;10.40;1.00;;;;;;5005082;28;20034;-58
2023/01/08 10:23:13;;;;;;;41.60;26.63;;;10.50;1.00;;;;;;5007731;28;20030;-59
2023/01/08 10:25:54;;;;;;;40.28;26.05;;;10.60;1.00;;;;;;5002526;28;20454;-59
2023/01/08 10:28:25;;;;;;;43.80;25.98;;;10.60;1.00;;;;;;4999897;28;20091;-60
2023/01/08 10:30:52;;;;;;;35.72;24.70;;;10.60;1.00;;;;;;5003896;28;20068;-60
2023/01/08 10:33:29;;;;;;;36.67;24.98;;;10.60;1.00;;;;;;5007519;28;20052;-60
2023/01/08 10:36:00;;;;;;;39.80;25.58;;;10.60;99.90;;;;;;5003071;28;20018;-60
2023/01/08 10:38:32;;;;;;;38.45;25.75;;;10.50;99.90;;;;;;4999684;28;20124;-60
2023/01/08 10:41:00;;;;;;;38.55;24.30;;;10.30;99.90;;;;;;4993808;28;20026;-60
2023/01/08 10:43:35;;;;;;;41.60;26.30;;;10.20;99.90;;;;;;4981267;28;20027;-60
2023/01/08 10:46:07;;;;;;;39.13;25.23;;;10.20;99.90;;;;;;5006985;28;20391;-60
2023/01/08 10:48:45;;;;;;;38.55;25.23;;;10.10;99.90;;;;;;5001962;28;20022;-67
2023/01/08 10:51:22;;;;;;;45.78;27.35;;;10.10;99.90;;;;;;4999754;28;20046;-62
2023/01/08 10:53:49;;;;;;;35.53;23.50;;;10.10;99.90;;;;;;5003930;28;20015;-62
2023/01/08 10:56:30;;;;;;;32.00;22.55;;;10.10;99.90;;;;;;5007898;28;20122;-62
2023/01/08 10:58:56;;;;;;;35.80;23.83;;;10.20;99.90;;;;;;5003340;28;20022;-62
2023/01/08 11:01:31;;;;;;;34.45;22.08;;;10.40;99.90;;;;;;4999262;28;20102;-62
2023/01/08 11:04:18;;;;;;;32.35;22.77;;;10.30;99.90;;;;;;5005883;28;20030;-62
2023/01/08 11:06:46;;;;;;;40.83;24.40;;;10.30;99.90;;;;;;5008962;28;20030;-62
2023/01/08 11:09:20;;;;;;;28.30;19.48;;;10.50;99.90;;;;;;5003583;28;20026;-61
2023/01/08 11:11:46;;;;;;;34.75;22.55;;;10.60;99.90;;;;;;4999173;28;20048;-61
2023/01/08 11:14:38;;;;;;;42.38;26.20;;;10.80;99.90;;;;;;4995527;28;20037;-62
2023/01/08 11:17:11;;;;;;;27.00;19.40;;;11.00;99.90;;;;;;4996592;28;20389;-62
2023/01/08 11:19:38;;;;;;;28.60;21.13;;;11.00;99.90;;;;;;5001062;28;20093;-62
2023/01/08 11:22:17;;;;;;;30.73;21.23;;;10.90;99.90;;;;;;5007027;28;20033;-62
2023/01/08 11:24:44;;;;;;;31.00;21.42;;;10.90;99.90;;;;;;5008639;28;20030;-63
2023/01/08 11:27:29;;;;;;;34.40;23.70;;;10.60;99.90;;;;;;5002789;28;20046;-64
2023/01/08 11:30:06;;;;;;;38.00;24.10;;;10.40;99.90;;;;;;5003971;28;20418;-70
2023/01/08 11:32:50;;;;;;;38.55;23.13;;;10.70;99.90;;;;;;5009971;28;20034;-56
2023/01/08 11:35:28;;;;;;;30.67;20.52;;;10.70;99.90;;;;;;5010480;28;20033;-52
2023/01/08 11:38:01;;;;;;;25.35;18.02;;;10.60;99.90;;;;;;5005220;28;20021;-57
2023/01/08 11:40:30;;;;;;;26.23;19.35;;;10.70;99.90;;;;;;5012719;28;20113;-57
2023/01/08 11:43:31;;;;;;;27.75;19.63;;;10.80;99.90;;;;;;5016229;28;20080;-58
2023/01/08 11:46:15;;;;;;;30.77;21.02;;;11.00;99.90;;;;;;5015088;28;20050;-58
2023/01/08 11:49:26;;;;;;;23.05;16.92;;;10.90;99.90;;;;;;5005757;28;20026;-56
2023/01/08 11:52:10;;;;;;;22.58;17.30;;;10.80;99.90;;;;;;5008644;28;20030;-58
2023/01/08 11:54:39;;;;;;;23.10;16.60;;;10.80;99.90;;;;;;5010166;28;20542;-58
2023/01/08 11:57:30;;;;;;;25.50;18.45;;;10.80;99.90;;;;;;4987574;28;20493;-58
2023/01/08 12:00:09;;;;;;;25.75;17.35;;;10.70;99.90;;;;;;5014770;28;20471;-59
2023/01/08 12:02:47;;;;;;;27.50;18.90;;;10.70;99.90;;;;;;5015887;28;20127;-58
2023/01/08 12:05:34;;;;;;;23.92;16.98;;;10.70;99.90;;;;;;5002346;28;20034;-58
2023/01/08 12:08:13;;;;;;;23.33;18.77;;;10.70;99.90;;;;;;5015797;28;20030;-58
2023/01/08 12:11:07;;;;;;;26.20;19.15;;;10.70;99.90;;;;;;4998012;28;20042;-55
2023/01/08 12:13:40;;;;;;;28.17;19.38;;;10.80;99.90;;;;;;4981251;28;20038;-53
2023/01/08 12:16:11;;;;;;;32.47;21.40;;;10.60;99.90;;;;;;5008567;28;20034;-57
2023/01/08 12:19:15;;;;;;;23.23;17.00;;;10.80;99.90;;;;;;5009786;28;20494;-53
2023/01/08 12:22:22;;;;;;;28.55;19.27;;;10.70;99.90;;;;;;4996071;28;20106;-57
2023/01/08 12:25:00;;;;;;;24.38;17.02;;;10.60;99.90;;;;;;4987428;28;20038;-53
2023/01/08 12:27:48;;;;;;;26.33;19.58;;;10.60;99.90;;;;;;5009771;28;20518;-56
2023/01/08 12:30:29;;;;;;;28.65;19.77;;;10.70;99.90;;;;;;4996481;28;20049;-56
2023/01/08 12:33:02;;;;;;;19.33;13.65;;;10.80;99.90;;;;;;5009412;28;20479;-57
2023/01/08 12:35:37;;;;;;;25.42;16.77;;;10.60;99.90;;;;;;5007987;28;20375;-55
2023/01/08 12:38:26;;;;;;;29.02;19.38;;;10.70;99.90;;;;;;5002000;28;20034;-57
2023/01/08 12:40:57;;;;;;;26.60;19.05;;;10.70;99.90;;;;;;4983742;28;20030;-56
2023/01/08 12:43:49;;;;;;;28.77;19.77;;;10.70;99.90;;;;;;5015187;28;20030;-53
2023/01/08 12:46:15;;;;;;;30.73;19.65;;;10.80;99.90;;;;;;5014477;28;20491;-55
2023/01/08 12:48:45;;;;;;;28.75;19.52;;;10.90;99.90;;;;;;5011487;28;20056;-50
2023/01/08 12:51:45;;;;;;;24.85;17.45;;;10.90;99.90;;;;;;5005063;28;20502;-53
2023/01/08 12:54:23;;;;;;;22.73;15.95;;;10.70;99.90;;;;;;4964970;28;20093;-50
2023/01/08 12:57:06;;;;;;;22.83;16.40;;;10.80;99.90;;;;;;5009098;28;20026;-52
2023/01/08 12:59:40;;;;;;;34.38;20.60;;;10.80;99.90;;;;;;5009169;28;20026;-53
2023/01/08 13:02:48;;;;;;;16.30;13.35;;;10.70;99.90;;;;;;5002072;28;20033;-50
2023/01/08 13:05:17;;;;;;;27.17;18.38;;;10.60;99.90;;;;;;4997066;28;20438;-54
2023/01/08 13:07:51;;;;;;;23.52;15.82;;;10.80;99.90;;;;;;5013436;28;20444;-51
2023/01/08 13:10:30;;;;;;;20.27;15.52;;;10.80;99.90;;;;;;5000843;28;20038;-52
2023/01/08 13:12:56;;;;;;;26.10;18.38;;;10.70;99.90;;;;;;5003286;28;20022;-54
2023/01/08 13:15:25;;;;;;;24.85;17.83;;;10.80;99.90;;;;;;5008763;28;20026;-56
2023/01/08 13:17:53;;;;;;;23.42;16.52;;;10.80;99.90;;;;;;5004692;28;20022;-51
2023/01/08 13:20:26;;;;;;;25.15;17.08;;;10.60;99.90;;;;;;5012715;28;20029;-52
2023/01/08 13:22:55;;;;;;;22.65;16.70;;;10.70;99.90;;;;;;5014637;28;20041;-49
2023/01/08 13:25:20;;;;;;;21.67;17.75;;;10.70;99.90;;;;;;5002029;28;20038;-48
2023/01/08 13:27:47;;;;;;;20.77;15.00;;;10.70;99.90;;;;;;5013643;28;20371;-49
2023/01/08 13:30:48;;;;;;;22.80;16.10;;;10.80;99.90;;;;;;5000448;28;20033;-51
2023/01/08 13:33:39;;;;;;;17.75;14.07;;;10.80;99.90;;;;;;4953845;29;20152;-53
2023/01/08 13:36:24;;;;;;;23.55;15.55;;;10.60;99.90;;;;;;5012361;28;20034;-52
2023/01/08 13:39:01;;;;;;;;;;;10.70;99.90;;;;;;5014182;28;20036;-52
2023/01/08 13:41:32;;;;;;;21.13;14.75;;;10.70;99.90;;;;;;5014189;28;19988;-51
2023/01/08 13:44:01;;;;;;;25.35;17.20;;;10.70;99.90;;;;;;5014041;28;20463;-53
2023/01/08 13:46:27;;;;;;;22.85;17.77;;;10.70;99.90;;;;;;5013839;28;20046;-50
2023/01/08 13:49:03;;;;;;;28.50;20.00;;;10.70;99.90;;;;;;5013981;28;20036;-52
2023/01/08 13:51:41;;;;;;;24.30;17.55;;;10.70;99.90;;;;;;4996207;28;20038;-51
2023/01/08 13:54:16;;;;;;;23.63;17.58;;;10.70;99.90;;;;;;5013613;28;20029;-55
2023/01/08 13:56:45;;;;;;;19.88;14.98;;;10.60;99.90;;;;;;5013459;28;20030;-53
2023/01/08 14:02:30;;;;;;;17.85;13.98;;;10.70;99.90;;;;;;5013913;28;20048;-53
2023/01/08 14:05:01;;;;;;;21.42;14.77;;;10.60;99.90;;;;;;5011206;28;20378;-57
2023/01/08 14:07:26;;;;;;;19.90;14.50;;;10.60;99.90;;;;;;5013315;28;20479;-52
2023/01/08 14:09:52;;;;;;;18.02;14.02;;;10.70;99.90;;;;;;5013523;28;20048;-51
2023/01/08 14:12:22;;;;;;;15.18;11.60;;;10.80;99.90;;;;;;5013704;28;20022;-51
2023/01/08 14:14:54;;;;;;;19.05;14.52;;;10.60;99.90;;;;;;5012228;28;20018;-54
2023/01/08 14:17:24;;;;;;;17.77;13.68;;;10.70;99.90;;;;;;5001894;28;20109;-51
2023/01/08 14:19:49;;;;;;;14.80;12.30;;;10.70;99.90;;;;;;4999742;28;20019;-51
2023/01/08 14:22:18;;;;;;;17.92;12.73;;;10.70;99.90;;;;;;5013280;28;20040;-51
2023/01/08 14:24:47;;;;;;;19.33;13.57;;;10.60;99.90;;;;;;5013565;28;20064;-52
2023/01/08 14:27:25;;;;;;;16.17;11.88;;;10.60;99.90;;;;;;4999576;28;20097;-50
2023/01/08 14:29:51;;;;;;;13.40;11.02;;;10.60;99.90;;;;;;5013092;28;20022;-53
2023/01/08 14:32:20;;;;;;;12.82;10.15;;;10.30;99.90;;;;;;4992201;28;20028;-52
2023/01/08 14:34:48;;;;;;;16.95;11.52;;;10.40;99.90;;;;;;4987303;28;20561;-51
2023/01/08 14:37:15;;;;;;;11.13;8.82;;;10.50;99.90;;;;;;4999661;28;20053;-51
2023/01/08 14:39:41;;;;;;;11.35;8.40;;;10.30;99.90;;;;;;5012736;28;20030;-54
2023/01/08 14:42:52;;;;;;;11.73;9.27;;;10.20;99.90;;;;;;4999184;28;20034;-50
2023/01/08 14:45:22;;;;;;;13.10;9.10;;;10.40;99.90;;;;;;5000077;28;20022;-53
2023/01/08 14:47:52;;;;;;;11.40;9.00;;;10.40;99.90;;;;;;4999620;28;20042;-54
2023/01/08 14:50:28;;;;;;;11.63;8.93;;;10.50;99.90;;;;;;5000839;28;20038;-55
2023/01/08 14:53:03;;;;;;;11.05;8.32;;;10.30;99.90;;;;;;4999896;28;20030;-53
2023/01/08 14:55:29;;;;;;;10.13;8.38;;;10.50;99.90;;;;;;5000398;28;20030;-51
2023/01/08 14:57:55;;;;;;;9.77;8.50;;;10.40;99.90;;;;;;5008095;28;20022;-53
2023/01/08 15:00:30;;;;;;;9.90;8.60;;;10.40;99.90;;;;;;5008765;28;20022;-49
2023/01/08 15:02:56;;;;;;;10.90;9.43;;;10.50;99.90;;;;;;5003154;28;20040;-54
2023/01/08 15:05:30;;;;;;;10.43;8.52;;;10.40;99.90;;;;;;5006429;28;20026;-50
2023/01/08 15:07:58;;;;;;;8.43;7.63;;;10.40;99.90;;;;;;5011289;28;20232;-51
2023/01/08 15:10:32;;;;;;;9.95;8.27;;;10.40;99.90;;;;;;5007557;28;20430;-54
2023/01/08 15:12:59;;;;;;;10.55;8.93;;;10.40;99.90;;;;;;5002910;28;20022;-51
2023/01/08 15:15:26;;;;;;;13.00;9.27;;;10.30;99.90;;;;;;5008630;28;20077;-50
2023/01/08 15:17:53;;;;;;;13.10;10.02;;;10.40;99.90;;;;;;5011152;28;20128;-51
2023/01/08 15:20:23;;;;;;;9.57;7.68;;;10.50;99.90;;;;;;5003729;28;20061;-53
2023/01/08 15:22:49;;;;;;;13.45;9.20;;;10.40;99.90;;;;;;5010296;28;20030;-49
2023/01/08 15:25:25;;;;;;;11.18;8.82;;;10.30;99.90;;;;;;5002685;28;20029;-51
2023/01/08 15:28:01;;;;;;;9.90;7.63;;;10.40;99.90;;;;;;4997063;28;20152;-50
2023/01/08 15:30:30;;;;;;;12.07;9.05;;;10.40;99.90;;;;;;5010439;28;20042;-54
2023/01/08 15:33:24;;;;;;;11.80;8.88;;;10.40;99.90;;;;;;5009220;28;20033;-52
2023/01/08 15:35:50;;;;;;;9.45;8.43;;;10.20;99.90;;;;;;5008158;28;20371;-51
2023/01/08 15:38:19;;;;;;;8.50;6.70;;;10.30;99.90;;;;;;5010523;28;20026;-53
2023/01/08 15:40:46;;;;;;;9.48;8.02;;;10.30;99.90;;;;;;5003854;28;20044;-53
2023/01/08 15:43:14;;;;;;;10.48;8.43;;;10.30;99.90;;;;;;4996799;28;20018;-55
2023/01/08 15:45:45;;;;;;;8.55;7.40;;;10.50;99.90;;;;;;4997779;28;20037;-49
2023/01/08 15:48:11;;;;;;;8.25;6.55;;;10.50;99.90;;;;;;5016397;28;20390;-51
2023/01/08 15:50:41;;;;;;;8.38;7.53;;;10.10;99.90;;;;;;5016124;28;20494;-49
2023/01/08 15:53:23;;;;;;;9.25;8.18;;;10.00;99.90;;;;;;5004763;28;20027;-49
2023/01/08 15:55:49;;;;;;;10.02;8.07;;;10.20;99.90;;;;;;5014828;28;20121;-50
2023/01/08 15:58:16;;;;;;;9.90;8.20;;;10.30;99.90;;;;;;5016070;28;20486;-52
2023/01/08 16:00:43;;;;;;;10.13;8.13;;;10.20;99.90;;;;;;5015686;28;20033;-50
2023/01/08 16:03:11;;;;;;;9.50;7.80;;;10.30;99.90;;;;;;5015857;28;20097;-49
2023/01/08 16:05:36;;;;;;;8.82;7.93;;;10.10;99.90;;;;;;5014072;28;20032;-51
2023/01/08 16:08:03;;;;;;;10.63;7.60;;;10.20;99.90;;;;;;5004011;28;20025;-51
2023/01/08 16:10:29;;;;;;;10.90;9.00;;;10.30;99.90;;;;;;5014304;28;20040;-51
2023/01/08 16:12:55;;;;;;;8.90;7.18;;;10.50;99.90;;;;;;5015511;28;20026;-51
2023/01/08 16:15:21;;;;;;;8.75;6.97;;;10.40;99.90;;;;;;5015743;28;20101;-50
2023/01/08 16:17:47;;;;;;;10.10;8.23;;;10.40;99.90;;;;;;4997739;28;20532;-49
2023/01/08 16:20:14;;;;;;;11.35;8.57;;;10.40;99.90;;;;;;5015626;28;20026;-52
2023/01/08 16:22:40;;;;;;;8.40;7.60;;;10.50;99.90;;;;;;5015403;28;20022;-51
2023/01/08 16:25:08;;;;;;;9.35;8.38;;;10.30;99.90;;;;;;5015389;28;20034;-50
2023/01/08 16:27:34;;;;;;;12.07;8.27;;;10.20;99.90;;;;;;5015586;28;20018;-50
2023/01/08 16:29:59;;;;;;;8.02;7.05;;;10.30;99.90;;;;;;5015259;28;20394;-50
2023/01/08 16:32:25;;;;;;;9.93;8.35;;;10.30;99.90;;;;;;5015220;28;20018;-50
2023/01/08 16:34:50;;;;;;;14.32;10.23;;;10.30;99.90;;;;;;5015155;28;20053;-55
2023/01/08 16:37:16;;;;;;;12.45;9.32;;;10.30;99.90;;;;;;5015214;28;20022;-53
2023/01/08 16:39:42;;;;;;;11.98;9.07;;;10.40;99.90;;;;;;5015259;28;20101;-61
2023/01/08 16:42:10;;;;;;;9.88;8.35;;;10.30;99.90;;;;;;5014928;28;20029;-51
2023/01/08 16:44:36;;;;;;;11.95;9.77;;;10.10;99.90;;;;;;5014388;28;20030;-51
2023/01/08 16:47:02;;;;;;;11.95;10.00;;;10.30;99.90;;;;;;5001579;28;20054;-49
2023/01/08 16:49:28;;;;;;;10.82;8.88;;;10.30;99.90;;;;;;5003255;28;20092;-52
2023/01/08 16:51:54;;;;;;;12.15;9.07;;;10.30;99.90;;;;;;5012071;28;20034;-53
2023/01/08 16:54:20;;;;;;;9.35;8.30;;;10.30;99.90;;;;;;5014666;28;20106;-51
2023/01/08 16:56:46;;;;;;;10.20;8.68;;;10.10;99.90;;;;;;5014168;28;20045;-50
2023/01/08 16:59:12;;;;;;;10.52;9.35;;;10.10;99.90;;;;;;5015075;28;20487;-50
2023/01/08 17:01:38;;;;;;;10.73;8.63;;;10.20;99.90;;;;;;5015170;28;20382;-55
2023/01/08 17:04:04;;;;;;;13.02;9.60;;;10.20;99.90;;;;;;5014644;28;20145;-50
2023/01/08 17:06:30;;;;;;;12.38;10.23;;;10.30;99.90;;;;;;5014759;28;20030;-49
2023/01/08 17:08:59;;;;;;;11.23;9.57;;;10.20;99.90;;;;;;5014374;28;20061;-50
2023/01/08 17:11:25;;;;;;;14.55;10.50;;;10.30;99.90;;;;;;4997115;28;20500;-50
2023/01/08 17:13:50;;;;;;;14.63;10.27;;;10.30;99.90;;;;;;5014550;28;20018;-51
2023/01/08 17:16:18;;;;;;;13.85;9.68;;;10.30;99.90;;;;;;5014552;28;20042;-51
2023/01/08 17:18:44;;;;;;;10.35;8.88;;;10.40;99.90;;;;;;5014473;28;20029;-52
2023/01/08 17:21:12;;;;;;;12.80;10.50;;;10.30;99.90;;;;;;5014251;28;20058;-51
2023/01/08 17:30:21;;;;;;;11.77;9.77;;;10.20;99.90;;;;;;5001141;28;20116;-55
2023/01/08 17:32:47;;;;;;;13.32;11.77;;;10.30;99.90;;;;;;5012296;28;20471;-54
2023/01/08 17:35:13;;;;;;;11.80;10.60;;;10.30;99.90;;;;;;5014408;28;20030;-51
2023/01/08 17:37:51;;;;;;;13.32;10.57;;;10.20;99.90;;;;;;5012314;28;20036;-53
2023/01/08 17:40:16;;;;;;;12.77;10.30;;;9.90;99.90;;;;;;5013812;28;20041;-52
2023/01/08 17:42:43;;;;;;;14.15;11.43;;;10.00;99.90;;;;;;5013738;28;20538;-51
2023/01/08 17:45:09;;;;;;;13.35;11.10;;;10.10;99.90;;;;;;4996715;28;20057;-54
2023/01/08 17:47:36;;;;;;;11.52;10.32;;;9.90;99.90;;;;;;5013970;28;20487;-57
2023/01/08 17:50:44;;;;;;;13.20;11.77;;;10.10;99.90;;;;;;5012444;28;20093;-49
2023/01/08 17:53:59;;;;;;;14.18;12.00;;;10.10;99.90;;;;;;4988221;28;20036;-50
2023/01/08 17:57:07;;;;;;;11.38;9.63;;;10.30;99.90;;;;;;5005444;28;20034;-50
2023/01/08 17:59:58;;;;;;;12.20;9.50;;;10.30;99.90;;;;;;4957046;28;20112;-53
2023/01/08 18:03:34;;;;;;;10.70;9.43;;;10.30;99.90;;;;;;4969348;28;20649;-53
2023/01/08 18:06:21;;;;;;;14.10;11.00;;;10.20;99.90;;;;;;4972233;28;20030;-50
2023/01/08 18:08:50;;;;;;;10.60;9.48;;;10.30;99.90;;;;;;4972427;28;20030;-50
2023/01/08 18:11:16;;;;;;;9.65;8.68;;;10.40;99.90;;;;;;4960722;28;20131;-49
2023/01/08 18:13:42;;;;;;;11.52;9.98;;;10.40;99.90;;;;;;4938351;28;20492;-48
2023/01/08 18:16:12;;;;;;;12.85;10.77;;;10.30;99.90;;;;;;4972519;28;20475;-54
2023/01/08 18:18:39;;;;;;;13.73;10.27;;;10.30;99.90;;;;;;4972404;28;20058;-49
2023/01/08 18:21:06;;;;;;;11.90;10.60;;;10.40;99.90;;;;;;4956138;28;20062;-51
2023/01/08 18:23:33;;;;;;;16.52;12.48;;;10.30;99.90;;;;;;4956442;28;20026;-53
2023/01/08 18:26:08;;;;;;;14.00;10.57;;;10.40;99.90;;;;;;4972132;28;20061;-49
2023/01/08 18:28:35;;;;;;;12.55;10.95;;;10.40;99.90;;;;;;4958711;28;20034;-47
2023/01/08 18:31:07;;;;;;;14.00;10.50;;;10.20;99.90;;;;;;4972134;28;20070;-47
2023/01/08 18:33:34;;;;;;;11.27;10.18;;;10.20;99.90;;;;;;4971654;28;20065;-51
2023/01/08 18:36:05;;;;;;;13.20;11.63;;;10.10;99.90;;;;;;4971883;28;20138;-51
2023/01/08 18:38:32;;;;;;;15.02;11.45;;;10.30;99.90;;;;;;4972100;28;20031;-51
2023/01/08 18:40:59;;;;;;;15.32;11.77;;;10.30;99.90;;;;;;4971454;28;20089;-49
2023/01/08 18:43:27;;;;;;;12.93;10.68;;;10.40;99.90;;;;;;4972281;28;20034;-50
2023/01/08 18:46:05;;;;;;;13.13;10.57;;;10.40;99.90;;;;;;4971828;28;20077;-54
2023/01/08 18:48:33;;;;;;;14.25;11.35;;;10.40;99.90;;;;;;4972080;28;20034;-52
2023/01/08 18:51:04;;;;;;;13.63;10.85;;;10.40;99.90;;;;;;4971578;28;20630;-53
2023/01/08 18:53:33;;;;;;;13.80;11.50;;;10.40;99.90;;;;;;4962163;28;20027;-52
2023/01/08 18:56:01;;;;;;;10.88;9.77;;;10.40;99.90;;;;;;4972047;28;20043;-49
2023/01/08 18:58:28;;;;;;;12.65;9.85;;;10.30;99.90;;;;;;4956078;28;20034;-53
2023/01/08 19:01:05;;;;;;;11.27;9.35;;;10.30;99.90;;;;;;4971898;28;20416;-50
2023/01/08 19:03:32;;;;;;;12.90;10.85;;;10.30;99.90;;;;;;4977195;28;20436;-52
2023/01/08 19:05:58;;;;;;;14.43;11.13;;;10.30;99.90;;;;;;4971911;28;20054;-50
2023/01/08 19:08:24;;;;;;;10.57;9.23;;;10.40;99.90;;;;;;4971906;28;20559;-50
2023/01/08 19:11:03;;;;;;;12.35;9.65;;;10.40;99.90;;;;;;4971713;28;20034;-53
2023/01/08 19:13:29;;;;;;;10.95;9.50;;;10.30;99.90;;;;;;4972104;28;20102;-53
2023/01/08 19:15:57;;;;;;;10.07;9.07;;;10.30;99.90;;;;;;4971756;28;20496;-51
2023/01/08 19:18:25;;;;;;;12.60;10.20;;;10.40;99.90;;;;;;4971592;28;20480;-50
2023/01/08 19:20:52;;;;;;;12.30;10.55;;;10.40;99.90;;;;;;4971800;28;20018;-55
2023/01/08 19:23:18;;;;;;;9.50;8.43;;;10.30;99.90;;;;;;4955533;28;20407;-52
2023/01/08 19:25:45;;;;;;;13.35;10.38;;;10.30;99.90;;;;;;4971755;28;20019;-50
2023/01/08 19:28:11;;;;;;;12.35;10.50;;;10.50;99.90;;;;;;4955586;28;20165;-51
2023/01/08 19:30:41;;;;;;;13.13;10.85;;;10.50;99.90;;;;;;4982728;28;20049;-50
2023/01/08 19:33:09;;;;;;;11.48;10.07;;;10.50;99.90;;;;;;4999020;28;20085;-49
2023/01/08 19:35:39;;;;;;;11.10;9.40;;;10.50;99.90;;;;;;5011380;28;20368;-52
2023/01/08 19:38:06;;;;;;;9.27;7.80;;;10.60;99.90;;;;;;5012635;28;20029;-50
2023/01/08 19:40:34;;;;;;;10.75;8.52;;;10.60;99.90;;;;;;4995136;28;20029;-48
2023/01/08 19:45:47;;;;;;;16.48;10.82;;;10.50;99.90;;;;;;5008690;28;20041;-55
2023/01/08 19:48:14;;;;;;;15.48;10.95;;;10.60;99.90;;;;;;5015441;28;20041;-51
2023/01/08 19:50:40;;;;;;;13.35;10.10;;;10.50;99.90;;;;;;4998547;28;20395;-52
2023/01/08 19:53:07;;;;;;;12.13;9.82;;;10.50;99.90;;;;;;5002180;28;20033;-52
2023/01/08 19:55:44;;;;;;;9.80;8.75;;;10.50;99.90;;;;;;5014068;28;20486;-50
2023/01/08 19:58:12;;;;;;;11.27;9.52;;;10.50;99.90;;;;;;5015301;28;20034;-53
2023/01/08 20:00:39;;;;;;;12.23;9.93;;;10.60;99.90;;;;;;5009631;28;20104;-52
2023/01/08 20:03:06;;;;;;;12.00;10.32;;;10.60;99.90;;;;;;5006875;28;20487;-53
2023/01/08 20:05:33;;;;;;;13.10;10.07;;;10.60;99.90;;;;;;5011396;28;20059;-50
2023/01/08 20:08:00;;;;;;;9.52;8.63;;;10.60;99.90;;;;;;5007892;28;20034;-54
2023/01/08 20:10:27;;;;;;;10.48;9.02;;;10.50;99.90;;;;;;5012376;28;20042;-52
2023/01/08 20:12:53;;;;;;;10.10;8.70;;;10.60;99.90;;;;;;4986068;28;20096;-55
2023/01/08 20:15:20;;;;;;;11.10;9.95;;;10.50;99.90;;;;;;5001083;28;20035;-54
2023/01/08 20:17:47;;;;;;;8.52;7.68;;;10.40;99.90;;;;;;5014315;28;20029;-53
2023/01/08 20:20:14;;;;;;;13.02;10.48;;;10.50;99.90;;;;;;5001087;28;20069;-52
2023/01/08 20:22:40;;;;;;;17.65;13.52;;;10.50;99.90;;;;;;4996917;28;20382;-49
2023/01/08 20:25:07;;;;;;;17.20;12.35;;;10.50;99.90;;;;;;4996581;28;20574;-50
2023/01/08 20:27:34;;;;;;;14.00;10.18;;;10.60;99.90;;;;;;5013908;28;20482;-51
2023/01/08 20:30:01;;;;;;;11.15;9.15;;;10.50;99.90;;;;;;5008987;28;20038;-49
2023/01/08 20:32:27;;;;;;;10.35;8.70;;;10.60;99.90;;;;;;5008380;28;20030;-52
2023/01/08 20:34:54;;;;;;;11.60;9.73;;;10.60;99.90;;;;;;5002034;28;20026;-52
2023/01/08 20:37:23;;;;;;;12.00;10.65;;;10.60;99.90;;;;;;4989281;28;20041;-54
2023/01/08 20:39:51;;;;;;;8.30;7.47;;;10.60;99.90;;;;;;4994292;28;20028;-51
2023/01/08 20:42:17;;;;;;;7.55;6.75;;;10.50;99.90;;;;;;4989035;28;20034;-48
2023/01/08 20:44:44;;;;;;;9.27;8.30;;;10.40;99.90;;;;;;5000432;28;20530;-50
2023/01/08 20:47:11;;;;;;;10.15;9.05;;;10.50;99.90;;;;;;5006093;28;20046;-48
2023/01/08 20:49:38;;;;;;;10.43;9.35;;;10.60;99.90;;;;;;5014009;28;20022;-50
2023/01/08 20:52:05;;;;;;;9.85;8.32;;;10.60;99.90;;;;;;5000152;28;20428;-49
2023/01/08 20:54:31;;;;;;;9.63;8.55;;;10.70;99.90;;;;;;5013938;28;20075;-53
2023/01/08 20:56:59;;;;;;;11.27;10.10;;;10.70;99.90;;;;;;5009101;28;20029;-51
2023/01/08 20:59:26;;;;;;;9.30;7.95;;;10.70;99.90;;;;;;5012831;28;20116;-50
2023/01/08 21:01:53;;;;;;;9.93;8.93;;;10.70;99.90;;;;;;5001615;28;20052;-49
2023/01/08 21:04:20;;;;;;;8.57;7.78;;;10.70;99.90;;;;;;5000845;28;20403;-52
2023/01/08 21:06:48;;;;;;;9.45;7.93;;;10.60;99.90;;;;;;5007392;28;20036;-49
2023/01/08 21:09:16;;;;;;;10.50;8.27;;;10.70;99.90;;;;;;4993221;28;20109;-51
2023/01/08 21:11:42;;;;;;;9.57;8.57;;;10.70;99.90;;;;;;5008795;28;20019;-48
2023/01/08 21:14:10;;;;;;;8.82;7.97;;;10.80;99.90;;;;;;5006810;28;20125;-51
2023/01/08 21:16:39;;;;;;;9.82;8.25;;;10.60;99.90;;;;;;5000736;28;20506;-54
2023/01/08 21:19:08;;;;;;;9.77;8.77;;;10.60;99.90;;;;;;5012855;28;20022;-50
2023/01/08 21:21:36;;;;;;;9.70;8.63;;;10.60;99.90;;;;;;5014345;28;20036;-49
2023/01/08 21:24:04;;;;;;;12.68;11.35;;;10.50;99.90;;;;;;5014284;28;20077;-48
2023/01/08 21:26:32;;;;;;;11.48;10.27;;;10.60;99.90;;;;;;4996435;28;20494;-49
2023/01/08 21:29:01;;;;;;;11.43;10.23;;;10.50;99.90;;;;;;5014300;28;20341;-51
2023/01/08 21:31:27;;;;;;;10.13;8.68;;;10.60;99.90;;;;;;5014076;28;20386;-50
2023/01/08 21:33:55;;;;;;;11.35;10.15;;;10.50;99.90;;;;;;5013867;28;20104;-50
2023/01/08 21:36:23;;;;;;;13.05;11.50;;;10.70;99.90;;;;;;5014332;28;20041;-53
2023/01/08 21:38:49;;;;;;;9.55;8.65;;;10.60;99.90;;;;;;5014215;28;20446;-48
2023/01/08 21:46:47;;;;;;;12.75;11.45;;;10.50;99.90;;;;;;5000692;28;20057;-54
2023/01/08 21:49:13;;;;;;;12.45;10.85;;;10.60;99.90;;;;;;4995219;28;20026;-51
2023/01/08 21:54:23;;;;;;;13.35;12.02;;;10.60;99.90;;;;;;5014021;28;20036;-50
2023/01/08 21:56:49;;;;;;;14.30;12.80;;;10.60;99.90;;;;;;5013505;28;20081;-50
2023/01/08 21:59:15;;;;;;;17.30;14.85;;;10.60;99.90;;;;;;5012186;28;20456;-54
2023/01/08 22:01:40;;;;;;;16.08;13.57;;;10.50;99.90;;;;;;5012928;28;20018;-50
2023/01/08 22:04:06;;;;;;;17.25;15.45;;;10.50;99.90;;;;;;5013662;28;20038;-50
2023/01/08 22:06:33;;;;;;;15.38;13.57;;;10.60;99.90;;;;;;5013564;28;20108;-49
2023/01/08 22:08:59;;;;;;;13.88;12.50;;;10.60;99.90;;;;;;5013946;28;20034;-52
2023/01/08 22:11:24;;;;;;;15.63;13.73;;;10.40;99.90;;;;;;5013110;28;20049;-51
2023/01/08 22:13:50;;;;;;;15.15;13.63;;;10.40;99.90;;;;;;5013875;28;20022;-51
2023/01/08 22:16:16;;;;;;;16.77;14.63;;;10.40;99.90;;;;;;5013486;28;20030;-49
2023/01/08 22:18:42;;;;;;;17.58;15.15;;;10.50;99.90;;;;;;5013609;28;20064;-54
2023/01/08 22:21:13;;;;;;;16.30;14.60;;;10.40;99.90;;;;;;5013633;28;20034;-51
2023/01/08 22:23:39;;;;;;;16.85;15.00;;;10.50;99.90;;;;;;5013212;28;20021;-50
2023/01/08 22:26:10;;;;;;;17.27;14.45;;;10.40;99.90;;;;;;5013685;28;20029;-48
2023/01/08 22:28:38;;;;;;;13.00;11.45;;;10.30;99.90;;;;;;4995960;28;20077;-53
2023/01/08 22:31:09;;;;;;;14.95;12.02;;;10.40;99.90;;;;;;5013157;28;20116;-48
2023/01/08 22:33:37;;;;;;;14.02;11.90;;;10.40;99.90;;;;;;5013116;28;20025;-49
2023/01/08 22:36:08;;;;;;;15.73;13.43;;;10.50;99.90;;;;;;5012984;28;20114;-51
2023/01/08 22:38:35;;;;;;;13.25;11.85;;;10.40;99.90;;;;;;5010377;28;20113;-50
2023/01/08 22:41:01;;;;;;;13.50;12.13;;;10.40;99.90;;;;;;5001587;28;20025;-49
2023/01/08 22:43:27;;;;;;;12.55;11.25;;;10.30;99.90;;;;;;5012904;28;20040;-51
2023/01/08 22:45:58;;;;;;;13.10;11.50;;;10.30;99.90;;;;;;5013055;28;20030;-54
2023/01/08 22:48:25;;;;;;;15.18;12.40;;;10.30;99.90;;;;;;4995432;28;20022;-51
2023/01/08 22:50:51;;;;;;;15.77;13.57;;;10.40;99.90;;;;;;5012917;28;20099;-53
2023/01/08 22:53:18;;;;;;;14.07;12.35;;;10.40;99.90;;;;;;5013477;28;20029;-53
2023/01/08 22:55:46;;;;;;;11.93;10.60;;;10.30;99.90;;;;;;4995385;28;20129;-52
2023/01/08 22:58:13;;;;;;;14.13;12.70;;;10.30;99.90;;;;;;5012858;28;20025;-49
2023/01/08 23:00:40;;;;;;;15.30;12.90;;;10.30;99.90;;;;;;4999085;28;20042;-53